createdAt,value
2023-10-25T00:04:27.589Z,9.50
2023-10-25T00:09:29.149Z,9.53
2023-10-25T00:14:30.612Z,9.61
2023-10-25T00:19:32.113Z,9.64
2023-10-25T00:24:33.731Z,9.63
2023-10-25T00:29:35.238Z,9.58
2023-10-25T00:34:36.776Z,9.49
2023-10-25T00:39:38.283Z,9.48
2023-10-25T00:44:39.901Z,9.46
2023-10-25T00:49:41.592Z,9.47
2023-10-25T00:54:43.761Z,9.43
2023-10-25T00:59:46.294Z,9.36
2023-10-25T01:04:47.826Z,9.39
2023-10-25T01:09:49.353Z,9.41
2023-10-25T01:14:50.838Z,9.48
2023-10-25T01:19:52.368Z,9.59
2023-10-25T01:24:53.951Z,9.58
2023-10-25T01:29:55.448Z,9.55
2023-10-25T01:34:56.941Z,9.52
2023-10-25T01:39:58.466Z,9.51
2023-10-25T01:45:00.055Z,9.52
2023-10-25T01:50:01.699Z,9.47
2023-10-25T01:55:03.573Z,9.47
2023-10-25T02:00:05.369Z,9.31
2023-10-25T02:05:14.166Z,9.21
2023-10-25T02:10:15.757Z,9.10
2023-10-25T02:15:17.263Z,9.05
2023-10-25T02:20:19.168Z,8.99
2023-10-25T02:25:20.793Z,8.89
2023-10-25T02:30:22.332Z,8.90
2023-10-25T02:35:23.867Z,8.92
2023-10-25T02:40:25.374Z,8.89
2023-10-25T02:45:26.909Z,8.90
2023-10-25T02:50:30.156Z,8.79
2023-10-25T02:55:33.536Z,8.77
2023-10-25T03:00:35.089Z,8.75
2023-10-25T03:05:36.580Z,8.76
2023-10-25T03:10:38.050Z,8.66
2023-10-25T03:15:39.691Z,8.67
2023-10-25T03:20:41.251Z,8.79
2023-10-25T03:25:42.782Z,8.53
2023-10-25T03:30:44.313Z,8.32
2023-10-25T03:35:52.852Z,8.16
2023-10-25T03:41:08.048Z,8.00
2023-10-25T03:46:09.923Z,8.25
2023-10-25T03:51:11.636Z,8.15
2023-10-25T03:56:13.235Z,7.93
2023-10-25T04:01:15.459Z,8.03
2023-10-25T04:06:17.002Z,8.45
2023-10-25T04:11:18.511Z,8.56
2023-10-25T04:16:20.240Z,8.45
2023-10-25T04:21:21.729Z,8.38
2023-10-25T04:26:23.236Z,8.54
2023-10-25T04:31:24.733Z,8.68
2023-10-25T04:36:26.330Z,8.92
2023-10-25T04:41:27.813Z,9.03
2023-10-25T04:46:29.394Z,9.20
2023-10-25T04:51:30.937Z,9.22
2023-10-25T04:56:32.487Z,9.25
2023-10-25T05:01:34.090Z,9.10
2023-10-25T05:06:35.827Z,9.04
2023-10-25T05:11:38.219Z,8.95
2023-10-25T05:16:39.887Z,9.03
2023-10-25T05:21:43.085Z,9.02
2023-10-25T05:26:45.023Z,9.14
2023-10-25T05:31:46.742Z,9.14
2023-10-25T05:36:48.535Z,9.02
2023-10-25T05:41:51.257Z,8.89
2023-10-25T05:46:52.895Z,9.02
2023-10-25T05:51:54.604Z,9.04
2023-10-25T05:56:56.244Z,9.19
2023-10-25T06:02:14.024Z,9.21
2023-10-25T06:07:16.837Z,9.23
2023-10-25T06:12:18.562Z,9.22
2023-10-25T06:17:20.140Z,9.26
2023-10-25T06:22:21.630Z,9.34
2023-10-25T06:27:23.182Z,9.44
2023-10-25T06:32:24.878Z,9.50
2023-10-25T06:37:26.812Z,9.56
2023-10-25T06:42:28.579Z,9.76
2023-10-25T06:47:30.254Z,9.84
2023-10-25T06:52:31.989Z,10.02
2023-10-25T06:57:33.731Z,10.11
2023-10-25T07:02:41.891Z,10.19
2023-10-25T07:07:43.717Z,10.37
2023-10-25T07:12:45.412Z,10.42
2023-10-25T07:17:46.943Z,10.42
2023-10-25T07:22:48.492Z,10.48
2023-10-25T07:27:50.141Z,10.58
2023-10-25T07:32:51.681Z,10.70
2023-10-25T07:37:53.209Z,10.84
2023-10-25T07:42:54.828Z,10.82
2023-10-25T07:47:56.355Z,10.91
2023-10-25T07:52:57.840Z,10.92
2023-10-25T08:03:03.911Z,11.07
2023-10-25T08:08:05.676Z,11.12
2023-10-25T08:13:07.330Z,11.26
2023-10-25T08:18:08.891Z,11.36
2023-10-25T08:23:10.465Z,11.20
2023-10-25T08:28:13.750Z,11.36
2023-10-25T08:33:15.372Z,11.48
2023-10-25T08:38:16.884Z,11.52
2023-10-25T08:43:18.913Z,11.57
2023-10-25T08:48:20.503Z,11.59
2023-10-25T08:53:25.753Z,11.36
2023-10-25T08:58:27.500Z,11.32
2023-10-25T09:03:31.920Z,11.39
2023-10-25T09:08:34.369Z,11.56
2023-10-25T09:13:37.057Z,11.65
2023-10-25T09:18:40.463Z,11.77
2023-10-25T09:23:42.218Z,11.93
2023-10-25T09:28:44.344Z,12.06
2023-10-25T09:33:47.698Z,12.14
2023-10-25T09:38:50.617Z,12.36
2023-10-25T09:43:52.793Z,12.44
2023-10-25T09:48:57.201Z,12.56
2023-10-25T09:54:01.712Z,12.57
2023-10-25T09:59:03.523Z,12.22
2023-10-25T10:04:14.181Z,12.01
2023-10-25T10:09:17.747Z,11.80
2023-10-25T10:14:29.323Z,11.73
2023-10-25T10:19:31.812Z,11.56
2023-10-25T10:24:44.312Z,11.56
2023-10-25T10:29:49.689Z,11.60
2023-10-25T10:34:51.213Z,11.62
2023-10-25T10:40:13.027Z,11.62
2023-10-25T10:45:15.518Z,11.60
2023-10-25T10:50:18.193Z,11.57
2023-10-25T10:55:21.058Z,11.57
2023-10-25T11:00:22.728Z,11.58
2023-10-25T11:05:24.352Z,11.58
2023-10-25T11:10:26.115Z,11.57
2023-10-25T11:15:30.010Z,11.60
2023-10-25T11:20:32.319Z,11.67
2023-10-25T11:25:33.945Z,11.66
2023-10-25T11:30:35.771Z,11.68
2023-10-25T11:35:41.612Z,11.73
2023-10-25T11:40:43.987Z,11.71
2023-10-25T11:45:46.394Z,11.74
2023-10-25T11:50:48.038Z,11.72
2023-10-25T12:02:00.705Z,11.76
2023-10-25T12:07:04.246Z,11.78
2023-10-25T12:12:07.688Z,11.81
2023-10-25T12:17:09.453Z,11.85
2023-10-25T12:22:12.415Z,11.90
2023-10-25T12:27:13.999Z,11.93
2023-10-25T12:32:15.509Z,12.03
2023-10-25T12:37:17.191Z,12.09
2023-10-25T12:42:18.815Z,12.09
2023-10-25T12:47:20.499Z,12.14
2023-10-25T12:52:22.209Z,12.09
2023-10-25T12:57:23.729Z,12.10
2023-10-25T13:02:25.219Z,12.11
2023-10-25T13:07:26.741Z,12.11
2023-10-25T13:12:28.254Z,12.16
2023-10-25T13:17:29.857Z,12.17
2023-10-25T13:22:31.384Z,12.14
2023-10-25T13:27:32.909Z,12.17
2023-10-25T13:32:34.475Z,12.20
2023-10-25T13:37:36.020Z,12.29
2023-10-25T13:42:37.585Z,12.37
2023-10-25T13:47:39.260Z,12.38
2023-10-25T13:52:40.959Z,12.36
2023-10-25T13:57:42.463Z,12.43
2023-10-25T14:02:44.259Z,12.59
2023-10-25T14:07:45.978Z,12.75
2023-10-25T14:12:47.503Z,12.84
2023-10-25T14:17:49.080Z,12.83
2023-10-25T14:22:50.886Z,12.82
2023-10-25T14:27:55.585Z,12.81
2023-10-25T14:32:57.220Z,12.90
2023-10-25T14:38:00.231Z,12.98
2023-10-25T14:43:01.799Z,12.96
2023-10-25T14:48:03.987Z,12.99
2023-10-25T14:53:05.970Z,12.90
2023-10-25T14:58:07.572Z,12.93
2023-10-25T15:03:09.199Z,12.96
2023-10-25T15:08:10.967Z,13.04
2023-10-25T15:13:12.593Z,13.05
2023-10-25T15:18:14.182Z,13.14
2023-10-25T15:23:15.828Z,13.09
2023-10-25T15:28:17.341Z,13.20
2023-10-25T15:33:18.875Z,13.21
2023-10-25T15:38:20.441Z,13.25
2023-10-25T15:43:21.945Z,13.31
2023-10-25T15:48:23.567Z,13.32
2023-10-25T15:53:25.281Z,13.33
2023-10-25T15:58:26.872Z,13.31
2023-10-25T16:03:28.553Z,13.36
2023-10-25T16:08:31.024Z,13.48
2023-10-25T16:13:32.751Z,13.51
2023-10-25T16:18:34.940Z,13.49
2023-10-25T16:23:39.953Z,13.49
2023-10-25T16:28:42.241Z,13.52
2023-10-25T16:33:43.872Z,13.49
2023-10-25T16:38:45.645Z,13.54
2023-10-25T16:43:47.264Z,13.56
2023-10-25T16:48:49.283Z,13.59
2023-10-25T16:53:51.240Z,13.62
2023-10-25T16:58:52.749Z,13.67
2023-10-25T17:03:54.426Z,13.72
2023-10-25T17:08:57.053Z,13.75
2023-10-25T17:13:58.725Z,13.76
2023-10-25T17:19:00.310Z,13.78
2023-10-25T17:24:01.897Z,13.82
2023-10-25T17:29:03.493Z,13.72
2023-10-25T17:34:05.099Z,13.71
2023-10-25T17:39:06.654Z,13.68
2023-10-25T17:44:08.193Z,13.62
2023-10-25T17:49:09.750Z,13.66
2023-10-25T17:54:11.724Z,13.61
2023-10-25T17:59:13.259Z,13.70
2023-10-25T18:04:14.960Z,13.61
2023-10-25T18:09:16.709Z,13.66
2023-10-25T18:14:18.437Z,13.70
2023-10-25T18:19:19.987Z,13.86
2023-10-25T18:24:21.650Z,13.89
2023-10-25T18:29:23.237Z,14.05
2023-10-25T18:34:24.973Z,13.96
2023-10-25T18:39:26.610Z,13.88
2023-10-25T18:44:28.121Z,13.86
2023-10-25T18:49:29.600Z,13.80
2023-10-25T18:54:31.145Z,13.69
2023-10-25T18:59:32.731Z,13.68
2023-10-25T19:06:28.729Z,13.62
2023-10-25T19:09:55.882Z,13.66
2023-10-25T19:15:17.465Z,13.65
2023-10-25T19:20:19.142Z,13.52
2023-10-25T19:25:20.893Z,13.56
2023-10-25T19:30:22.582Z,13.54
2023-10-25T19:35:24.145Z,13.34
2023-10-25T19:40:25.810Z,13.40
2023-10-25T19:45:27.381Z,13.27
2023-10-25T19:50:28.894Z,13.25
2023-10-25T19:55:30.465Z,13.21
2023-10-25T20:00:31.990Z,13.25
2023-10-25T20:05:33.501Z,13.22
2023-10-25T20:10:35.008Z,13.17
2023-10-25T20:15:36.495Z,13.35
2023-10-25T20:20:41.455Z,13.26
2023-10-25T20:25:49.860Z,13.21
2023-10-25T20:30:51.439Z,13.20
2023-10-25T20:35:56.743Z,13.20
2023-10-25T20:40:58.258Z,13.13
2023-10-25T20:45:59.898Z,13.18
2023-10-25T20:51:02.049Z,13.23
2023-10-25T20:56:03.648Z,13.10
2023-10-25T21:01:05.897Z,13.13
2023-10-25T21:06:07.530Z,13.10
2023-10-25T21:11:09.938Z,13.20
2023-10-25T21:16:13.962Z,13.05
2023-10-25T21:21:18.359Z,12.92
2023-10-25T21:26:19.935Z,12.76
2023-10-25T21:31:21.471Z,12.88
2023-10-25T21:36:23.088Z,12.91
2023-10-25T21:41:24.578Z,12.89
2023-10-25T21:46:26.260Z,12.99
2023-10-25T21:51:27.820Z,12.97
2023-10-25T21:56:29.325Z,13.02
2023-10-25T22:01:30.857Z,13.06
2023-10-25T22:06:32.379Z,12.97
2023-10-25T22:11:33.923Z,13.01
2023-10-25T22:16:35.658Z,13.05
2023-10-25T22:21:37.190Z,12.94
2023-10-25T22:26:38.698Z,12.92
2023-10-25T22:31:40.335Z,12.84
2023-10-25T22:36:41.818Z,12.78
2023-10-25T22:41:43.428Z,12.64
2023-10-25T22:46:45.028Z,12.67
2023-10-25T22:51:46.538Z,12.69
2023-10-25T22:56:48.555Z,12.66
2023-10-25T23:01:50.030Z,12.65
2023-10-25T23:06:51.539Z,12.55
2023-10-25T23:11:53.070Z,12.59
2023-10-25T23:16:54.545Z,12.58
2023-10-25T23:21:56.057Z,12.56
2023-10-25T23:26:57.550Z,12.62
2023-10-25T23:31:59.062Z,12.74
2023-10-25T23:37:00.561Z,12.62
2023-10-25T23:42:02.072Z,12.55
2023-10-25T23:47:03.715Z,12.57
2023-10-25T23:52:05.436Z,12.59
2023-10-25T23:57:06.980Z,12.54
